createdAt,value
2018-11-03T00:00:37.181Z,3.70
2018-11-03T00:01:15.383Z,4.10
2018-11-03T00:01:54.126Z,3.40
2018-11-03T00:02:32.789Z,3.60
2018-11-03T00:03:11.068Z,3.50
2018-11-03T00:03:49.206Z,4.20
2018-11-03T00:04:28.061Z,3.72
2018-11-03T00:05:06.394Z,3.80
2018-11-03T00:05:44.840Z,3.92
2018-11-03T00:06:23.319Z,3.50
2018-11-03T00:07:01.797Z,3.22
2018-11-03T00:07:39.779Z,3.47
2018-11-03T00:08:19.115Z,3.70
2018-11-03T00:08:57.616Z,3.37
2018-11-03T00:09:35.892Z,4.00
2018-11-03T00:10:14.745Z,3.80
2018-11-03T00:10:52.691Z,3.35
2018-11-03T00:11:30.677Z,4.10
2018-11-03T00:12:08.936Z,4.03
2018-11-03T00:12:47.532Z,3.98
2018-11-03T00:13:26.069Z,3.35
2018-11-03T00:14:04.791Z,3.80
2018-11-03T00:14:44.654Z,3.97
2018-11-03T00:15:23.034Z,4.30
2018-11-03T00:16:01.427Z,3.95
2018-11-03T00:16:39.607Z,3.97
2018-11-03T00:17:20.415Z,4.10
2018-11-03T00:17:58.507Z,4.03
2018-11-03T00:18:36.653Z,4.13
2018-11-03T00:19:15.105Z,3.90
2018-11-03T00:19:53.767Z,3.95
2018-11-03T00:20:32.491Z,3.60
2018-11-03T00:21:11.184Z,3.85
2018-11-03T00:21:50.244Z,3.67
2018-11-03T00:22:28.851Z,4.17
2018-11-03T00:23:09.225Z,3.42
2018-11-03T00:23:47.638Z,3.15
2018-11-03T00:24:26.278Z,3.72
2018-11-03T00:25:04.933Z,3.72
2018-11-03T00:25:44.948Z,4.10
2018-11-03T00:26:23.266Z,4.15
2018-11-03T00:27:01.748Z,3.80
2018-11-03T00:27:40.226Z,4.78
2018-11-03T00:28:18.181Z,4.15
2018-11-03T00:28:56.501Z,4.35
2018-11-03T00:29:34.860Z,3.70
2018-11-03T00:30:15.603Z,4.17
2018-11-03T00:30:54.253Z,3.52
2018-11-03T00:31:32.468Z,3.65
2018-11-03T00:32:11.166Z,3.30
2018-11-03T00:32:49.613Z,4.10
2018-11-03T00:33:28.143Z,3.98
2018-11-03T00:34:06.512Z,4.03
2018-11-03T00:34:45.495Z,4.22
2018-11-03T00:35:23.866Z,3.47
2018-11-03T00:36:02.154Z,3.10
2018-11-03T00:36:40.420Z,4.07
2018-11-03T00:37:18.443Z,4.75
2018-11-03T00:37:57.320Z,3.77
2018-11-03T00:38:35.444Z,3.97
2018-11-03T00:39:14.836Z,3.80
2018-11-03T00:39:53.376Z,3.70
2018-11-03T00:40:31.818Z,3.85
2018-11-03T00:41:10.059Z,3.70
2018-11-03T00:41:48.672Z,3.95
2018-11-03T00:42:27.289Z,4.28
2018-11-03T00:43:05.448Z,4.00
2018-11-03T00:43:43.996Z,3.62
2018-11-03T00:44:22.552Z,3.70
2018-11-03T00:45:00.749Z,3.77
2018-11-03T00:45:39.489Z,4.20
2018-11-03T00:46:17.755Z,3.70
2018-11-03T00:46:55.812Z,4.12
2018-11-03T00:47:34.323Z,4.70
2018-11-03T00:48:14.262Z,3.95
2018-11-03T00:48:52.678Z,4.33
2018-11-03T00:49:30.912Z,4.25
2018-11-03T00:50:10.841Z,3.85
2018-11-03T00:50:48.805Z,4.10
2018-11-03T00:51:26.967Z,4.17
2018-11-03T00:52:05.939Z,3.75
2018-11-03T00:52:43.960Z,3.92
2018-11-03T00:53:22.681Z,3.60
2018-11-03T00:54:00.576Z,4.28
2018-11-03T00:54:38.757Z,4.30
2018-11-03T00:55:16.953Z,3.52
2018-11-03T00:55:54.940Z,3.85
2018-11-03T00:56:32.980Z,4.33
2018-11-03T00:57:11.513Z,4.58
2018-11-03T00:57:49.756Z,4.33
2018-11-03T00:58:27.909Z,4.87
2018-11-03T00:59:06.695Z,3.83
2018-11-03T00:59:45.068Z,4.58
2018-11-03T01:00:22.974Z,4.58
2018-11-03T01:01:01.532Z,4.60
2018-11-03T01:01:40.131Z,4.20
2018-11-03T01:02:18.751Z,4.22
2018-11-03T01:02:57.002Z,4.78
2018-11-03T01:03:35.412Z,3.70
2018-11-03T01:04:14.985Z,4.30
2018-11-03T01:04:55.857Z,4.08
2018-11-03T01:05:34.415Z,4.75
2018-11-03T01:06:15.048Z,4.47
2018-11-03T01:06:54.801Z,4.60
2018-11-03T01:07:34.282Z,4.50
2018-11-03T01:08:12.904Z,5.30
2018-11-03T01:08:51.131Z,4.30
2018-11-03T01:09:30.490Z,4.35
2018-11-03T01:10:09.169Z,4.42
2018-11-03T01:10:48.192Z,5.30
2018-11-03T01:11:27.171Z,4.15
2018-11-03T01:12:06.308Z,4.55
2018-11-03T01:12:45.529Z,4.50
2018-11-03T01:13:27.244Z,4.30
2018-11-03T01:14:05.736Z,4.45
2018-11-03T01:14:44.320Z,4.28
2018-11-03T01:15:24.172Z,5.00
2018-11-03T01:16:03.542Z,4.55
2018-11-03T01:16:43.033Z,4.60
2018-11-03T01:17:21.895Z,4.78
2018-11-03T01:18:00.819Z,5.17
2018-11-03T01:18:40.864Z,5.05
2018-11-03T01:19:19.208Z,4.37
2018-11-03T01:19:57.682Z,4.62
2018-11-03T01:20:36.800Z,4.60
2018-11-03T01:21:15.554Z,4.80
2018-11-03T01:21:54.140Z,3.95
2018-11-03T01:22:33.365Z,4.75
2018-11-03T01:23:11.479Z,4.55
2018-11-03T01:23:50.154Z,4.65
2018-11-03T01:24:28.598Z,4.80
2018-11-03T01:25:06.700Z,4.72
2018-11-03T01:25:46.209Z,5.10
2018-11-03T01:26:24.728Z,5.00
2018-11-03T01:27:02.904Z,5.10
2018-11-03T01:27:41.428Z,5.42
2018-11-03T01:28:19.925Z,4.85
2018-11-03T01:28:58.140Z,4.97
2018-11-03T01:29:36.859Z,4.70
2018-11-03T01:30:16.791Z,6.12
2018-11-03T01:30:56.527Z,5.15
2018-11-03T01:31:34.892Z,5.20
2018-11-03T01:32:13.321Z,5.90
2018-11-03T01:32:51.402Z,4.50
2018-11-03T01:33:31.139Z,5.37
2018-11-03T01:34:09.259Z,5.20
2018-11-03T01:34:47.365Z,4.60
2018-11-03T01:35:25.412Z,5.17
2018-11-03T01:36:03.460Z,4.85
2018-11-03T01:36:41.473Z,4.70
2018-11-03T01:37:19.375Z,5.50
2018-11-03T01:37:57.326Z,5.85
2018-11-03T01:38:36.186Z,6.00
2018-11-03T01:39:14.949Z,6.05
2018-11-03T01:39:53.097Z,5.65
2018-11-03T01:40:32.308Z,5.62
2018-11-03T01:41:11.071Z,5.12
2018-11-03T01:41:49.679Z,5.67
2018-11-03T01:42:28.033Z,5.85
2018-11-03T01:43:06.770Z,5.90
2018-11-03T01:43:45.364Z,5.05
2018-11-03T01:44:24.564Z,5.78
2018-11-03T01:45:03.179Z,5.53
2018-11-03T01:45:41.371Z,5.08
2018-11-03T01:46:19.709Z,5.75
2018-11-03T01:46:58.058Z,5.47
2018-11-03T01:47:36.684Z,5.60
2018-11-03T01:48:14.903Z,5.70
2018-11-03T01:48:53.396Z,5.85
2018-11-03T01:49:32.496Z,6.05
2018-11-03T01:50:13.818Z,5.65
2018-11-03T01:50:52.293Z,6.40
2018-11-03T01:51:31.279Z,6.90
2018-11-03T01:52:09.725Z,6.03
2018-11-03T01:52:48.091Z,5.00
2018-11-03T01:53:26.537Z,6.15
2018-11-03T01:54:05.016Z,5.65
2018-11-03T01:54:43.270Z,6.20
2018-11-03T01:55:24.351Z,5.90
2018-11-03T01:56:02.610Z,5.67
2018-11-03T01:56:40.687Z,5.57
2018-11-03T01:57:18.900Z,5.80
2018-11-03T01:57:57.442Z,6.28
2018-11-03T01:58:35.496Z,6.10
2018-11-03T01:59:14.228Z,5.72
2018-11-03T01:59:52.721Z,6.50
2018-11-03T02:00:31.662Z,5.40
2018-11-03T02:01:11.054Z,5.80
2018-11-03T02:01:49.437Z,5.97
2018-11-03T02:02:27.415Z,6.40
2018-11-03T02:03:05.794Z,6.50
2018-11-03T02:03:45.480Z,6.92
2018-11-03T02:04:23.896Z,6.58
2018-11-03T02:05:02.017Z,6.55
2018-11-03T02:05:40.267Z,5.87
2018-11-03T02:06:18.286Z,5.95
2018-11-03T02:06:57.152Z,5.83
2018-11-03T02:07:35.532Z,5.90
2018-11-03T02:08:14.135Z,6.45
2018-11-03T02:08:52.343Z,5.67
2018-11-03T02:09:31.471Z,6.35
2018-11-03T02:10:11.235Z,6.05
2018-11-03T02:10:49.836Z,6.47
2018-11-03T02:11:28.028Z,6.62
2018-11-03T02:12:07.321Z,6.30
2018-11-03T02:12:45.877Z,6.67
2018-11-03T02:13:23.819Z,7.20
2018-11-03T02:14:02.016Z,6.50
2018-11-03T02:14:40.251Z,6.60
2018-11-03T02:15:20.126Z,6.30
2018-11-03T02:15:59.484Z,6.00
2018-11-03T02:16:38.020Z,5.80
2018-11-03T02:17:16.428Z,7.03
2018-11-03T02:17:55.896Z,6.62
2018-11-03T02:18:34.020Z,6.50
2018-11-03T02:19:13.675Z,6.15
2018-11-03T02:19:52.703Z,6.28
2018-11-03T02:20:32.244Z,6.72
2018-11-03T02:21:10.575Z,6.53
2018-11-03T02:21:49.140Z,6.33
2018-11-03T02:22:27.308Z,6.45
2018-11-03T02:23:05.881Z,6.78
2018-11-03T02:23:44.256Z,6.60
2018-11-03T02:24:22.818Z,6.20
2018-11-03T02:25:00.948Z,6.80
2018-11-03T02:25:39.244Z,6.90
2018-11-03T02:26:17.175Z,7.37
2018-11-03T02:26:55.642Z,6.03
2018-11-03T02:27:33.972Z,7.12
2018-11-03T02:28:12.623Z,7.62
2018-11-03T02:28:51.151Z,7.45
2018-11-03T02:29:29.503Z,7.55
2018-11-03T02:30:09.146Z,7.60
2018-11-03T02:30:47.112Z,7.97
2018-11-03T02:31:25.544Z,7.75
2018-11-03T02:32:04.168Z,7.03
2018-11-03T02:32:43.884Z,7.42
2018-11-03T02:33:22.840Z,7.10
2018-11-03T02:34:01.486Z,7.90
2018-11-03T02:34:39.821Z,7.80
2018-11-03T02:35:18.099Z,7.50
2018-11-03T02:35:56.856Z,7.40
2018-11-03T02:36:35.418Z,7.30
2018-11-03T02:37:14.004Z,8.05
2018-11-03T02:37:53.714Z,7.50
2018-11-03T02:38:31.904Z,8.05
2018-11-03T02:39:11.904Z,8.28
2018-11-03T02:39:49.815Z,7.35
2018-11-03T02:40:28.532Z,7.45
2018-11-03T02:41:08.208Z,7.83
2018-11-03T02:41:46.689Z,7.65
2018-11-03T02:42:26.322Z,9.18
2018-11-03T02:43:07.104Z,7.60
2018-11-03T02:43:45.489Z,7.80
2018-11-03T02:44:24.173Z,7.80
2018-11-03T02:45:02.649Z,7.92
2018-11-03T02:45:41.241Z,7.65
2018-11-03T02:46:19.758Z,7.40
2018-11-03T02:46:59.454Z,7.10
2018-11-03T02:47:37.761Z,7.78
2018-11-03T02:48:15.796Z,8.33
2018-11-03T02:48:53.914Z,7.70
2018-11-03T02:49:32.741Z,7.83
2018-11-03T02:50:13.259Z,7.58
2018-11-03T02:50:52.138Z,7.97
2018-11-03T02:51:30.882Z,7.42
2018-11-03T02:52:09.124Z,7.75
2018-11-03T02:52:48.316Z,7.30
2018-11-03T02:53:27.783Z,8.40
2018-11-03T02:54:06.449Z,7.05
2018-11-03T02:54:44.776Z,8.38
2018-11-03T02:55:23.166Z,7.72
2018-11-03T02:56:01.942Z,7.65
2018-11-03T02:56:40.468Z,7.90
2018-11-03T02:57:18.780Z,8.10
2018-11-03T02:57:57.069Z,8.63
2018-11-03T02:58:35.408Z,7.50
2018-11-03T02:59:14.203Z,8.45
2018-11-03T02:59:52.237Z,7.67
2018-11-03T03:00:30.820Z,7.78
2018-11-03T03:01:08.823Z,7.45
2018-11-03T03:01:47.232Z,7.95
2018-11-03T03:02:25.113Z,7.55
2018-11-03T03:03:03.813Z,7.58
2018-11-03T03:03:42.155Z,8.30
2018-11-03T03:04:21.065Z,8.45
2018-11-03T03:04:59.760Z,7.78
